In Rescue
 
Open Full Screen Window  High Contrast Mode
August 09, 2020 7:45 PM EDT
Weather Information
Wind Direction
  ---
Wind Speed
  00 kt (0 mph)
Wind Gust
  00 kt (0 mph)
Altimeter
29.98 in
Visibility
10 SM
Temperature
27° C
81° F
Dewpoint
20° C
68° F
Humidity
66%
Sky Condition
Clear
VFR

METAR KFFX 092345Z AUTO 00000KT 10SM CLR 27/20 A2998 RMK AO2 T02700197

FAA Disclaimer: The data displayed is for advisory purposes only and is not to be used for flight planning or operations.